createdAt,value
2017-06-25T00:01:03.986Z,20.76
2017-06-25T00:03:31.406Z,20.79
2017-06-25T00:06:00.127Z,20.80
2017-06-25T00:08:27.703Z,20.86
2017-06-25T00:10:55.478Z,20.91
2017-06-25T00:13:22.914Z,20.91
2017-06-25T00:15:53.693Z,20.94
2017-06-25T00:18:23.903Z,20.97
2017-06-25T00:20:51.903Z,20.98
2017-06-25T00:23:19.316Z,20.99
2017-06-25T00:25:46.963Z,21.04
2017-06-25T00:28:14.383Z,21.01
2017-06-25T00:30:42.262Z,21.02
2017-06-25T00:33:10.671Z,21.09
2017-06-25T00:35:38.216Z,21.06
2017-06-25T00:38:08.345Z,21.03
2017-06-25T00:40:35.762Z,21.06
2017-06-25T00:43:03.193Z,21.05
2017-06-25T00:45:31.085Z,21.08
2017-06-25T00:47:58.859Z,21.11
2017-06-25T00:50:26.278Z,21.11
2017-06-25T00:52:59.314Z,21.12
2017-06-25T00:55:27.035Z,21.06
2017-06-25T00:57:55.475Z,21.02
2017-06-25T01:00:23.250Z,21.06
2017-06-25T01:02:57.202Z,20.95
2017-06-25T01:05:24.781Z,20.99
2017-06-25T01:07:52.194Z,20.96
2017-06-25T01:10:19.611Z,20.98
2017-06-25T01:12:47.033Z,20.94
2017-06-25T01:15:14.455Z,20.94
2017-06-25T01:17:42.365Z,20.91
2017-06-25T01:20:09.781Z,20.91
2017-06-25T01:22:37.195Z,20.89
2017-06-25T01:25:06.671Z,20.90
2017-06-25T01:27:35.360Z,20.88
2017-06-25T01:30:02.896Z,20.87
2017-06-25T01:32:30.347Z,20.93
2017-06-25T01:34:57.877Z,20.94
2017-06-25T01:37:25.298Z,20.98
2017-06-25T01:39:52.740Z,21.05
2017-06-25T01:42:20.198Z,21.01
2017-06-25T01:44:48.144Z,21.07
2017-06-25T01:47:15.557Z,21.06
2017-06-25T01:49:42.996Z,20.96
2017-06-25T01:52:10.430Z,20.92
2017-06-25T01:54:38.783Z,20.93
2017-06-25T01:57:12.731Z,20.93
2017-06-25T01:59:40.522Z,20.87
2017-06-25T02:02:22.435Z,20.95
2017-06-25T02:04:50.355Z,20.90
2017-06-25T02:07:17.779Z,20.81
2017-06-25T02:09:45.195Z,20.86
2017-06-25T02:12:12.965Z,20.80
2017-06-25T02:14:40.390Z,20.83
2017-06-25T02:17:09.340Z,20.84
2017-06-25T02:19:39.215Z,20.75
2017-06-25T02:22:06.631Z,20.78
2017-06-25T02:24:34.231Z,20.89
2017-06-25T02:27:02.381Z,20.84
2017-06-25T02:29:30.604Z,20.87
2017-06-25T02:31:58.013Z,20.92
2017-06-25T02:34:25.423Z,20.99
2017-06-25T02:36:52.844Z,20.92
2017-06-25T02:39:20.724Z,20.79
2017-06-25T02:41:50.625Z,20.81
2017-06-25T02:44:18.043Z,20.74
2017-06-25T02:46:45.470Z,20.66
2017-06-25T02:49:12.898Z,20.65
2017-06-25T02:51:40.314Z,20.56
2017-06-25T02:54:07.897Z,20.50
2017-06-25T02:56:42.007Z,20.52
2017-06-25T02:59:09.544Z,20.55
2017-06-25T03:01:37.422Z,20.57
2017-06-25T03:04:04.863Z,20.55
2017-06-25T03:06:33.416Z,20.54
2017-06-25T03:09:25.310Z,20.57
2017-06-25T03:11:54.784Z,20.52
2017-06-25T03:14:24.594Z,20.48
2017-06-25T03:16:55.113Z,20.55
2017-06-25T03:19:29.232Z,20.54
2017-06-25T03:21:56.704Z,20.53
2017-06-25T03:24:24.133Z,20.57
2017-06-25T03:26:51.582Z,20.58
2017-06-25T03:29:19.783Z,20.51
2017-06-25T03:31:49.613Z,20.54
2017-06-25T03:34:17.091Z,20.46
2017-06-25T03:36:45.131Z,20.38
2017-06-25T03:39:13.873Z,20.42
2017-06-25T03:41:41.342Z,20.43
2017-06-25T03:44:12.209Z,20.37
2017-06-25T03:46:40.119Z,20.52
2017-06-25T03:49:07.602Z,20.50
2017-06-25T03:51:38.065Z,20.55
2017-06-25T03:54:12.539Z,20.57
2017-06-25T03:56:41.146Z,20.53
2017-06-25T03:59:09.593Z,20.47
2017-06-25T04:01:37.391Z,20.53
2017-06-25T04:04:05.332Z,20.44
2017-06-25T04:06:39.774Z,20.44
2017-06-25T04:09:08.243Z,20.22
2017-06-25T04:11:37.221Z,20.13
2017-06-25T04:14:04.715Z,19.84
2017-06-25T04:16:32.328Z,19.50
2017-06-25T04:19:01.343Z,19.40
2017-06-25T04:21:29.206Z,19.20
2017-06-25T04:23:56.687Z,18.93
2017-06-25T04:26:26.636Z,18.87
2017-06-25T04:28:54.067Z,18.79
2017-06-25T04:31:29.402Z,18.81
2017-06-25T04:33:56.909Z,18.79
2017-06-25T04:36:24.946Z,18.85
2017-06-25T04:38:52.394Z,18.97
2017-06-25T04:41:20.480Z,18.88
2017-06-25T04:43:47.943Z,18.88
2017-06-25T04:46:15.629Z,18.96
2017-06-25T04:48:43.051Z,18.84
2017-06-25T04:51:11.008Z,18.95
2017-06-25T04:53:45.086Z,19.05
2017-06-25T04:56:12.494Z,18.99
2017-06-25T04:58:39.935Z,19.06
2017-06-25T05:01:07.977Z,19.08
2017-06-25T05:03:35.960Z,18.93
2017-06-25T05:06:03.421Z,19.10
2017-06-25T05:08:34.454Z,19.12
2017-06-25T05:11:01.862Z,19.17
2017-06-25T05:13:29.742Z,19.12
2017-06-25T05:15:57.163Z,19.11
2017-06-25T05:18:26.158Z,19.14
2017-06-25T05:20:53.845Z,19.08
2017-06-25T05:23:21.748Z,19.13
2017-06-25T05:25:49.188Z,19.21
2017-06-25T05:28:16.590Z,19.18
2017-06-25T05:30:44.168Z,19.22
2017-06-25T05:33:11.591Z,19.22
2017-06-25T05:35:38.998Z,19.34
2017-06-25T05:38:06.422Z,19.30
2017-06-25T05:40:33.891Z,19.31
2017-06-25T05:43:02.643Z,19.25
2017-06-25T05:45:30.801Z,19.28
2017-06-25T05:47:58.391Z,19.33
2017-06-25T05:50:25.818Z,19.26
2017-06-25T05:52:53.399Z,19.17
2017-06-25T05:55:20.918Z,19.13
2017-06-25T05:57:48.339Z,18.98
2017-06-25T06:00:15.747Z,19.01
2017-06-25T06:02:43.639Z,19.03
2017-06-25T06:05:11.051Z,19.01
2017-06-25T06:07:38.946Z,19.05
2017-06-25T06:10:06.358Z,19.15
2017-06-25T06:12:34.311Z,19.30
2017-06-25T06:15:01.741Z,19.43
2017-06-25T06:17:29.220Z,19.50
2017-06-25T06:19:56.674Z,19.46
2017-06-25T06:22:24.091Z,19.61
2017-06-25T06:24:51.514Z,19.70
2017-06-25T06:27:18.938Z,19.64
2017-06-25T06:29:46.360Z,19.66
2017-06-25T06:32:14.080Z,19.81
2017-06-25T06:34:41.491Z,19.86
2017-06-25T06:37:08.911Z,19.87
2017-06-25T06:39:36.350Z,20.00
2017-06-25T06:42:03.767Z,19.87
2017-06-25T06:44:31.425Z,19.88
2017-06-25T06:46:58.864Z,19.91
2017-06-25T06:49:26.275Z,19.94
2017-06-25T06:51:53.698Z,19.87
2017-06-25T06:54:21.110Z,19.85
2017-06-25T06:56:48.713Z,19.97
2017-06-25T06:59:16.455Z,20.11
2017-06-25T07:01:44.311Z,20.30
2017-06-25T07:04:11.754Z,20.14
2017-06-25T07:06:40.550Z,20.16
2017-06-25T07:09:08.002Z,20.12
2017-06-25T07:11:35.507Z,20.10
2017-06-25T07:14:02.919Z,20.02
2017-06-25T07:16:30.359Z,19.95
2017-06-25T07:18:57.781Z,19.88
2017-06-25T07:21:27.658Z,19.85
2017-06-25T07:23:55.084Z,19.79
2017-06-25T07:26:22.834Z,19.63
2017-06-25T07:28:50.250Z,19.60
2017-06-25T07:31:19.055Z,19.22
2017-06-25T07:33:46.627Z,19.09
2017-06-25T07:36:14.046Z,18.88
2017-06-25T07:38:42.067Z,18.72
2017-06-25T07:41:10.118Z,18.80
2017-06-25T07:43:37.684Z,18.95
2017-06-25T07:46:05.532Z,19.07
2017-06-25T07:48:32.959Z,19.25
2017-06-25T07:51:00.387Z,19.38
2017-06-25T07:53:27.823Z,19.64
2017-06-25T07:55:55.235Z,19.75
2017-06-25T07:58:41.715Z,19.84
2017-06-25T08:01:17.084Z,19.83
2017-06-25T08:03:44.541Z,19.90
2017-06-25T08:06:12.287Z,20.01
2017-06-25T08:08:40.187Z,19.85
2017-06-25T08:11:09.692Z,19.72
2017-06-25T08:13:37.496Z,19.75
2017-06-25T08:16:05.374Z,19.73
2017-06-25T08:18:33.995Z,19.86
2017-06-25T08:21:01.875Z,19.93
2017-06-25T08:23:30.021Z,20.14
2017-06-25T08:25:57.459Z,20.19
2017-06-25T08:28:24.999Z,20.33
2017-06-25T08:30:52.418Z,20.45
2017-06-25T08:33:19.848Z,20.24
2017-06-25T08:35:47.294Z,20.27
2017-06-25T08:38:14.716Z,20.13
2017-06-25T08:40:42.507Z,20.00
2017-06-25T08:43:09.934Z,19.93
2017-06-25T08:45:38.853Z,19.92
2017-06-25T08:48:06.304Z,19.95
2017-06-25T08:50:33.739Z,20.18
2017-06-25T08:53:02.062Z,20.43
2017-06-25T08:55:29.490Z,20.38
2017-06-25T08:57:56.916Z,20.47
2017-06-25T09:00:24.358Z,20.49
2017-06-25T09:02:51.777Z,20.43
2017-06-25T09:05:19.576Z,20.46
2017-06-25T09:07:47.900Z,20.69
2017-06-25T09:10:15.333Z,20.88
2017-06-25T09:12:42.795Z,21.07
2017-06-25T09:15:10.236Z,21.19
2017-06-25T09:17:38.059Z,21.28
2017-06-25T09:20:05.503Z,21.26
2017-06-25T09:22:32.937Z,21.18
2017-06-25T09:25:03.932Z,21.07
2017-06-25T09:27:31.992Z,21.43
2017-06-25T09:30:00.139Z,21.53
2017-06-25T09:32:27.588Z,21.48
2017-06-25T09:34:55.023Z,21.60
2017-06-25T09:37:22.479Z,22.06
2017-06-25T09:39:49.911Z,22.32
2017-06-25T09:42:17.343Z,22.25
2017-06-25T09:44:44.779Z,22.15
2017-06-25T09:47:12.416Z,22.17
2017-06-25T09:49:39.978Z,22.07
2017-06-25T09:52:07.654Z,21.70
2017-06-25T09:54:37.703Z,21.54
2017-06-25T09:57:05.134Z,21.50
2017-06-25T09:59:32.584Z,21.66
2017-06-25T10:02:00.188Z,21.87
2017-06-25T10:04:27.610Z,22.34
2017-06-25T10:06:55.643Z,23.40
2017-06-25T10:09:23.506Z,23.58
2017-06-25T10:11:50.920Z,23.63
2017-06-25T10:14:19.986Z,23.61
2017-06-25T10:16:47.780Z,23.50
2017-06-25T10:19:15.310Z,23.41
2017-06-25T10:21:43.218Z,22.87
2017-06-25T10:24:10.670Z,22.60
2017-06-25T10:26:38.076Z,22.79
2017-06-25T10:29:05.550Z,23.36
2017-06-25T10:31:32.997Z,23.61
2017-06-25T10:34:00.408Z,23.47
2017-06-25T10:36:28.166Z,23.30
2017-06-25T10:38:55.598Z,23.43
2017-06-25T10:41:25.472Z,23.37
2017-06-25T10:43:53.358Z,23.27
2017-06-25T10:46:21.011Z,23.02
2017-06-25T10:48:49.420Z,23.10
2017-06-25T10:51:19.338Z,23.15
2017-06-25T10:53:48.223Z,22.88
2017-06-25T10:56:17.981Z,22.98
2017-06-25T10:58:45.403Z,23.10
2017-06-25T11:01:12.818Z,23.21
2017-06-25T11:03:40.238Z,23.49
2017-06-25T11:06:08.098Z,23.85
2017-06-25T11:08:37.999Z,23.81
2017-06-25T11:11:05.896Z,23.69
2017-06-25T11:13:33.474Z,23.60
2017-06-25T11:16:00.914Z,23.72
2017-06-25T11:18:28.421Z,23.68
2017-06-25T11:20:55.879Z,23.68
2017-06-25T11:23:26.344Z,23.75
2017-06-25T11:25:53.763Z,23.94
2017-06-25T11:28:21.332Z,24.18
2017-06-25T11:30:49.928Z,23.91
2017-06-25T11:33:19.701Z,24.00
2017-06-25T11:35:47.171Z,23.88
2017-06-25T11:38:14.583Z,23.87
2017-06-25T11:40:42.003Z,23.74
2017-06-25T11:43:09.575Z,23.57
2017-06-25T11:45:37.316Z,23.55
2017-06-25T11:48:06.394Z,23.69
2017-06-25T11:53:06.311Z,23.30
2017-06-25T11:55:36.751Z,23.19
2017-06-25T11:58:04.160Z,23.24
2017-06-25T12:00:31.570Z,23.20
2017-06-25T12:02:59.021Z,23.06
2017-06-25T12:05:26.446Z,23.14
2017-06-25T12:07:54.288Z,23.03
2017-06-25T12:10:21.695Z,22.84
2017-06-25T12:12:49.110Z,22.56
2017-06-25T12:15:16.533Z,22.48
2017-06-25T12:17:44.902Z,22.62
2017-06-25T12:20:12.674Z,22.68
2017-06-25T12:22:42.708Z,22.78
2017-06-25T12:25:17.265Z,22.76
2017-06-25T12:27:44.714Z,22.84
2017-06-25T12:30:12.519Z,22.76
2017-06-25T12:32:39.941Z,22.88
2017-06-25T12:35:07.359Z,23.01
2017-06-25T12:37:35.324Z,23.32
2017-06-25T12:40:03.690Z,23.49
2017-06-25T12:42:31.117Z,23.39
2017-06-25T12:44:58.535Z,23.43
2017-06-25T12:47:25.947Z,23.28
2017-06-25T12:49:53.518Z,23.35
2017-06-25T12:52:20.927Z,23.19
2017-06-25T12:54:48.363Z,23.15
2017-06-25T12:57:15.789Z,23.24
2017-06-25T12:59:43.931Z,23.42
2017-06-25T13:02:11.801Z,23.58
2017-06-25T13:04:45.303Z,23.64
2017-06-25T13:07:12.734Z,23.55
2017-06-25T13:09:40.482Z,23.51
2017-06-25T13:12:07.903Z,23.40
2017-06-25T13:14:35.327Z,23.22
2017-06-25T13:17:03.804Z,23.17
2017-06-25T13:19:32.090Z,23.26
2017-06-25T13:21:59.511Z,23.21
2017-06-25T13:24:28.787Z,23.32
2017-06-25T13:26:56.208Z,23.42
2017-06-25T13:29:24.314Z,23.32
2017-06-25T13:31:52.367Z,23.46
2017-06-25T13:34:19.782Z,23.29
2017-06-25T13:36:47.214Z,23.38
2017-06-25T13:39:15.952Z,23.60
2017-06-25T13:41:43.643Z,23.60
2017-06-25T13:44:11.066Z,23.67
2017-06-25T13:46:38.826Z,23.82
2017-06-25T13:49:06.247Z,23.91
2017-06-25T13:51:33.679Z,23.81
2017-06-25T13:54:01.528Z,23.73
2017-06-25T13:56:29.511Z,23.60
2017-06-25T13:58:56.934Z,23.41
2017-06-25T14:01:24.409Z,23.40
2017-06-25T14:03:51.975Z,23.37
2017-06-25T14:06:19.867Z,23.31
2017-06-25T14:08:48.279Z,23.33
2017-06-25T14:11:16.151Z,23.32
2017-06-25T14:13:45.851Z,23.32
2017-06-25T14:16:14.292Z,23.23
2017-06-25T14:18:41.723Z,23.24
2017-06-25T14:21:12.106Z,23.28
2017-06-25T14:23:40.042Z,23.43
2017-06-25T14:26:07.516Z,23.47
2017-06-25T14:28:34.955Z,23.37
2017-06-25T14:31:02.851Z,23.48
2017-06-25T14:33:31.091Z,23.43
2017-06-25T14:35:58.831Z,23.30
2017-06-25T14:38:26.241Z,23.36
2017-06-25T14:40:53.670Z,23.46
2017-06-25T14:43:21.335Z,23.30
2017-06-25T14:45:49.199Z,23.27
2017-06-25T14:48:16.955Z,23.18
2017-06-25T14:50:44.362Z,23.36
2017-06-25T14:53:11.802Z,23.51
2017-06-25T14:55:42.695Z,23.72
2017-06-25T14:58:10.407Z,23.70
2017-06-25T15:00:39.283Z,23.50
2017-06-25T15:03:06.719Z,23.62
2017-06-25T15:05:35.019Z,23.65
2017-06-25T15:08:03.339Z,23.65
2017-06-25T15:10:31.282Z,23.46
2017-06-25T15:12:59.347Z,23.46
2017-06-25T15:15:27.485Z,23.48
2017-06-25T15:17:55.066Z,23.73
2017-06-25T15:20:22.517Z,24.16
2017-06-25T15:22:50.094Z,24.43
2017-06-25T15:25:18.769Z,24.40
2017-06-25T15:27:46.784Z,24.32
2017-06-25T15:30:15.630Z,24.06
2017-06-25T15:32:49.165Z,24.02
2017-06-25T15:35:19.649Z,24.05
2017-06-25T15:37:47.983Z,24.12
2017-06-25T15:40:19.080Z,24.20
2017-06-25T15:42:46.887Z,24.19
2017-06-25T15:45:14.689Z,24.18
2017-06-25T15:47:42.829Z,24.00
2017-06-25T15:50:10.285Z,24.01
2017-06-25T15:52:40.214Z,24.22
2017-06-25T15:55:07.648Z,24.15
2017-06-25T15:57:35.078Z,24.16
2017-06-25T16:00:02.611Z,24.15
2017-06-25T16:02:30.558Z,24.02
2017-06-25T16:04:58.186Z,23.99
2017-06-25T16:07:25.646Z,23.94
2017-06-25T16:09:54.379Z,23.93
2017-06-25T16:12:22.590Z,23.94
2017-06-25T16:14:50.685Z,23.97
2017-06-25T16:17:18.922Z,23.60
2017-06-25T16:19:46.376Z,23.73
2017-06-25T16:22:15.043Z,23.80
2017-06-25T16:24:43.138Z,23.80
2017-06-25T16:27:10.843Z,23.80
2017-06-25T16:29:38.630Z,23.73
2017-06-25T16:32:06.059Z,23.66
2017-06-25T16:34:33.472Z,23.77
2017-06-25T16:37:01.514Z,23.53
2017-06-25T16:39:28.931Z,23.54
2017-06-25T16:41:56.353Z,23.42
2017-06-25T16:44:23.972Z,23.33
2017-06-25T16:46:53.714Z,23.49
2017-06-25T16:49:21.132Z,23.64
2017-06-25T16:51:48.672Z,23.64
2017-06-25T16:54:17.016Z,23.54
2017-06-25T16:56:44.427Z,23.60
2017-06-25T16:59:11.868Z,23.36
2017-06-25T17:01:41.163Z,23.48
2017-06-25T17:04:08.585Z,23.60
2017-06-25T17:06:36.058Z,23.72
2017-06-25T17:09:03.491Z,23.63
2017-06-25T17:11:31.367Z,23.75
2017-06-25T17:13:58.794Z,23.81
2017-06-25T17:16:26.863Z,23.69
2017-06-25T17:18:54.814Z,23.70
2017-06-25T17:21:22.415Z,23.78
2017-06-25T17:23:51.093Z,23.77
2017-06-25T17:28:57.059Z,23.80
2017-06-25T17:31:24.473Z,23.73
2017-06-25T17:33:54.970Z,23.75
2017-06-25T17:36:22.519Z,23.73
2017-06-25T17:38:50.988Z,23.63
2017-06-25T17:41:18.414Z,23.49
2017-06-25T17:43:50.781Z,23.65
2017-06-25T17:46:18.245Z,23.77
2017-06-25T17:48:45.693Z,23.80
2017-06-25T17:51:14.094Z,23.69
2017-06-25T17:53:41.510Z,23.60
2017-06-25T17:56:09.271Z,23.61
2017-06-25T17:58:36.727Z,23.35
2017-06-25T18:01:07.164Z,23.35
2017-06-25T18:03:34.587Z,23.45
2017-06-25T18:06:02.159Z,23.57
2017-06-25T18:08:29.587Z,23.47
2017-06-25T18:10:57.035Z,23.45
2017-06-25T18:13:24.507Z,23.52
2017-06-25T18:15:52.275Z,23.42
2017-06-25T18:18:19.741Z,23.37
2017-06-25T18:20:48.191Z,23.32
2017-06-25T18:23:15.662Z,23.25
2017-06-25T18:25:43.363Z,23.19
2017-06-25T18:28:11.213Z,23.24
2017-06-25T18:30:38.638Z,23.33
2017-06-25T18:33:06.058Z,23.18
2017-06-25T18:35:33.712Z,23.08
2017-06-25T18:38:03.418Z,23.07
2017-06-25T18:40:30.855Z,23.05
2017-06-25T18:43:01.162Z,23.06
2017-06-25T18:45:28.993Z,23.02
2017-06-25T18:47:56.436Z,23.03
2017-06-25T18:50:24.733Z,23.05
2017-06-25T18:52:52.163Z,23.06
2017-06-25T18:55:19.831Z,23.15
2017-06-25T18:57:48.072Z,23.02
2017-06-25T19:00:15.562Z,22.94
2017-06-25T19:02:43.022Z,22.90
2017-06-25T19:05:10.523Z,22.87
2017-06-25T19:07:37.976Z,22.97
2017-06-25T19:10:05.415Z,22.95
2017-06-25T19:12:32.990Z,22.93
2017-06-25T19:15:00.447Z,22.85
2017-06-25T19:17:27.906Z,22.79
2017-06-25T19:19:56.453Z,22.74
2017-06-25T19:22:23.875Z,22.74
2017-06-25T19:24:52.046Z,22.83
2017-06-25T19:27:20.435Z,22.78
2017-06-25T19:29:49.991Z,22.74
2017-06-25T19:32:17.714Z,22.67
2017-06-25T19:34:47.899Z,22.72
2017-06-25T19:37:15.310Z,22.65
2017-06-25T19:39:43.239Z,22.72
2017-06-25T19:42:11.314Z,22.67
2017-06-25T19:44:38.756Z,22.66
2017-06-25T19:47:06.208Z,22.66
2017-06-25T19:49:34.756Z,22.66
2017-06-25T19:52:02.297Z,22.61
2017-06-25T19:54:29.737Z,22.40
2017-06-25T19:56:57.707Z,22.48
2017-06-25T19:59:25.595Z,22.50
2017-06-25T20:01:54.306Z,22.43
2017-06-25T20:04:23.539Z,22.38
2017-06-25T20:06:51.430Z,22.13
2017-06-25T20:09:18.848Z,22.14
2017-06-25T20:11:46.524Z,22.06
2017-06-25T20:14:24.378Z,22.01
2017-06-25T20:16:54.796Z,21.89
2017-06-25T20:19:22.219Z,21.78
2017-06-25T20:21:49.660Z,21.67
2017-06-25T20:24:17.116Z,21.57
2017-06-25T20:26:44.563Z,21.48
2017-06-25T20:29:11.995Z,21.44
2017-06-25T20:31:39.798Z,21.44
2017-06-25T20:34:07.215Z,21.28
2017-06-25T20:36:34.626Z,21.24
2017-06-25T20:39:02.116Z,21.24
2017-06-25T20:41:29.550Z,21.20
2017-06-25T20:43:57.298Z,21.13
2017-06-25T20:46:27.420Z,21.16
2017-06-25T20:48:54.839Z,21.19
2017-06-25T20:51:22.264Z,21.25
2017-06-25T20:53:50.648Z,21.15
2017-06-25T20:56:18.368Z,21.24
2017-06-25T20:58:45.793Z,21.23
2017-06-25T21:01:13.481Z,21.13
2017-06-25T21:03:40.907Z,21.23
2017-06-25T21:06:08.323Z,21.15
2017-06-25T21:08:38.119Z,21.21
2017-06-25T21:11:05.642Z,21.18
2017-06-25T21:13:33.693Z,21.12
2017-06-25T21:16:01.182Z,21.06
2017-06-25T21:18:28.807Z,20.97
2017-06-25T21:20:56.827Z,20.92
2017-06-25T21:23:25.419Z,20.87
2017-06-25T21:25:52.833Z,20.81
2017-06-25T21:28:20.588Z,20.79
2017-06-25T21:30:48.225Z,20.74
2017-06-25T21:33:16.127Z,20.65
2017-06-25T21:35:43.547Z,20.56
2017-06-25T21:38:12.542Z,20.53
2017-06-25T21:40:39.951Z,20.36
2017-06-25T21:43:07.377Z,20.40
2017-06-25T21:45:35.047Z,20.38
2017-06-25T21:48:03.166Z,20.48
2017-06-25T21:50:31.414Z,20.52
2017-06-25T21:53:00.428Z,20.50
2017-06-25T21:55:28.795Z,20.48
2017-06-25T21:57:56.246Z,20.49
2017-06-25T22:00:24.127Z,20.52
2017-06-25T22:02:52.147Z,20.51
2017-06-25T22:05:19.570Z,20.53
2017-06-25T22:07:49.176Z,20.59
2017-06-25T22:10:16.600Z,20.51
2017-06-25T22:12:44.479Z,20.42
2017-06-25T22:15:12.487Z,20.32
2017-06-25T22:17:40.758Z,20.28
2017-06-25T22:20:08.533Z,20.32
2017-06-25T22:22:36.618Z,20.14
2017-06-25T22:25:05.505Z,20.18
2017-06-25T22:27:33.043Z,20.18
2017-06-25T22:30:01.259Z,20.02
2017-06-25T22:32:28.685Z,20.03
2017-06-25T22:34:56.423Z,20.04
2017-06-25T22:37:24.109Z,19.94
2017-06-25T22:39:54.985Z,19.88
2017-06-25T22:42:22.416Z,19.85
2017-06-25T22:44:49.902Z,19.85
2017-06-25T22:47:17.542Z,19.76
2017-06-25T22:49:45.677Z,19.71
2017-06-25T22:52:13.115Z,19.71
2017-06-25T22:54:40.523Z,19.74
2017-06-25T22:57:07.930Z,19.72
2017-06-25T22:59:36.494Z,19.65
2017-06-25T23:02:04.628Z,19.58
2017-06-25T23:04:32.030Z,19.59
2017-06-25T23:06:59.822Z,19.57
2017-06-25T23:09:27.360Z,19.56
2017-06-25T23:11:54.811Z,19.48
2017-06-25T23:14:22.805Z,19.55
2017-06-25T23:16:50.232Z,19.51
2017-06-25T23:19:18.154Z,19.50
2017-06-25T23:21:48.890Z,19.51
2017-06-25T23:24:16.683Z,19.57
2017-06-25T23:26:44.100Z,19.58
2017-06-25T23:29:13.278Z,19.55
2017-06-25T23:31:40.701Z,19.61
2017-06-25T23:34:08.111Z,19.63
2017-06-25T23:36:36.202Z,19.64
2017-06-25T23:39:03.615Z,19.71
2017-06-25T23:44:26.974Z,19.65
2017-06-25T23:46:54.446Z,19.71
2017-06-25T23:49:22.193Z,19.79
2017-06-25T23:51:49.850Z,19.78
2017-06-25T23:54:17.382Z,19.81
2017-06-25T23:56:44.802Z,19.79
2017-06-25T23:59:12.224Z,19.81
